sensor_id;sensor_type;location;lat;lon;timestamp;pressure;altitude;pressure_sealevel;temperature;humidity
35878;BME280;21982;49.804;24.072;2023-02-10T00:00:11;98868.56;;;-3.62;54.79
35878;BME280;21982;49.804;24.072;2023-02-10T00:02:37;98660.66;;;-5.11;54.72
35878;BME280;21982;49.804;24.072;2023-02-10T00:05:02;98760.69;;;-4.47;54.57
35878;BME280;21982;49.804;24.072;2023-02-10T00:07:29;98317.50;;;-7.12;54.20
35878;BME280;21982;49.804;24.072;2023-02-10T00:09:56;98552.88;;;-5.94;54.44
35878;BME280;21982;49.804;24.072;2023-02-10T00:12:21;98723.22;;;-4.81;54.62
35878;BME280;21982;49.804;24.072;2023-02-10T00:14:50;98266.28;;;-7.43;54.46
35878;BME280;21982;49.804;24.072;2023-02-10T00:17:17;98373.16;;;-6.84;54.66
35878;BME280;21982;49.804;24.072;2023-02-10T00:19:50;98664.41;;;-4.96;54.18
35878;BME280;21982;49.804;24.072;2023-02-10T00:22:15;98770.13;;;-4.68;54.58
35878;BME280;21982;49.804;24.072;2023-02-10T00:24:42;98791.31;;;-4.36;54.54
35878;BME280;21982;49.804;24.072;2023-02-10T00:27:09;98752.81;;;-4.44;54.66
35878;BME280;21982;49.804;24.072;2023-02-10T00:29:37;98843.75;;;-4.11;54.80
35878;BME280;21982;49.804;24.072;2023-02-10T00:32:03;98215.06;;;-7.49;54.48
35878;BME280;21982;49.804;24.072;2023-02-10T00:34:30;98471.91;;;-5.90;54.72
35878;BME280;21982;49.804;24.072;2023-02-10T00:36:55;98864.28;;;-3.63;54.41
35878;BME280;21982;49.804;24.072;2023-02-10T00:39:21;98835.13;;;-3.68;54.34
35878;BME280;21982;49.804;24.072;2023-02-10T00:41:48;98558.50;;;-5.40;54.89
35878;BME280;21982;49.804;24.072;2023-02-10T00:44:15;98481.38;;;-5.91;54.47
35878;BME280;21982;49.804;24.072;2023-02-10T00:46:40;98706.94;;;-4.83;54.53
35878;BME280;21982;49.804;24.072;2023-02-10T00:49:05;98664.53;;;-4.77;54.66
35878;BME280;21982;49.804;24.072;2023-02-10T00:51:31;98854.16;;;-3.47;54.46
35878;BME280;21982;49.804;24.072;2023-02-10T00:53:59;98645.81;;;-4.84;54.72
35878;BME280;21982;49.804;24.072;2023-02-10T00:56:25;98866.75;;;-3.40;54.46
35878;BME280;21982;49.804;24.072;2023-02-10T00:58:50;98664.03;;;-4.43;54.20
35878;BME280;21982;49.804;24.072;2023-02-10T01:03:51;98306.19;;;-6.84;54.36
35878;BME280;21982;49.804;24.072;2023-02-10T01:06:17;98225.97;;;-6.95;54.51
35878;BME280;21982;49.804;24.072;2023-02-10T01:08:43;98804.56;;;-3.80;54.48
35878;BME280;21982;49.804;24.072;2023-02-10T01:11:10;98907.41;;;-3.20;54.56
35878;BME280;21982;49.804;24.072;2023-02-10T01:13:37;98834.78;;;-3.18;54.03
35878;BME280;21982;49.804;24.072;2023-02-10T01:16:08;98406.72;;;-5.74;54.32
35878;BME280;21982;49.804;24.072;2023-02-10T01:18:38;98767.22;;;-3.53;53.92
35878;BME280;21982;49.804;24.072;2023-02-10T01:21:16;98725.13;;;-3.78;54.24
35878;BME280;21982;49.804;24.072;2023-02-10T01:23:42;98781.38;;;-3.41;54.22
35878;BME280;21982;49.804;24.072;2023-02-10T01:26:09;98762.47;;;-3.43;54.25
35878;BME280;21982;49.804;24.072;2023-02-10T01:28:37;98824.06;;;-3.11;54.19
35878;BME280;21982;49.804;24.072;2023-02-10T01:31:10;98823.09;;;-3.08;53.65
35878;BME280;21982;49.804;24.072;2023-02-10T01:33:36;98345.13;;;-6.01;54.07
35878;BME280;21982;49.804;24.072;2023-02-10T01:36:04;98809.38;;;-3.10;54.02
35878;BME280;21982;49.804;24.072;2023-02-10T01:38:30;98360.47;;;-5.78;54.04
35878;BME280;21982;49.804;24.072;2023-02-10T01:40:55;98275.69;;;-6.71;53.75
35878;BME280;21982;49.804;24.072;2023-02-10T01:43:20;98726.03;;;-3.59;53.98
35878;BME280;21982;49.804;24.072;2023-02-10T01:45:46;98442.97;;;-5.77;54.32
35878;BME280;21982;49.804;24.072;2023-02-10T01:48:12;98412.25;;;-5.61;53.69
35878;BME280;21982;49.804;24.072;2023-02-10T01:50:41;98681.50;;;-4.08;54.04
35878;BME280;21982;49.804;24.072;2023-02-10T01:53:07;98822.38;;;-3.51;53.95
35878;BME280;21982;49.804;24.072;2023-02-10T01:55:35;98397.59;;;-6.02;54.01
35878;BME280;21982;49.804;24.072;2023-02-10T01:58:05;98803.97;;;-3.65;53.65
35878;BME280;21982;49.804;24.072;2023-02-10T02:00:32;98368.09;;;-6.40;54.18
35878;BME280;21982;49.804;24.072;2023-02-10T02:03:00;98837.31;;;-3.79;54.05
35878;BME280;21982;49.804;24.072;2023-02-10T02:07:58;98368.66;;;-6.56;53.90
35878;BME280;21982;49.804;24.072;2023-02-10T02:10:34;98818.25;;;-3.98;54.53
35878;BME280;21982;49.804;24.072;2023-02-10T02:13:05;98790.88;;;-4.04;53.98
35878;BME280;21982;49.804;24.072;2023-02-10T02:15:47;98796.19;;;-4.07;54.25
35878;BME280;21982;49.804;24.072;2023-02-10T02:27:00;98721.97;;;-4.70;54.44
35878;BME280;21982;49.804;24.072;2023-02-10T02:32:19;98739.06;;;-4.66;54.53
35878;BME280;21982;49.804;24.072;2023-02-10T02:34:56;98479.47;;;-6.32;54.71
35878;BME280;21982;49.804;24.072;2023-02-10T02:37:29;98793.28;;;-4.43;54.56
35878;BME280;21982;49.804;24.072;2023-02-10T02:39:56;98606.22;;;-5.96;54.62
35878;BME280;21982;49.804;24.072;2023-02-10T02:42:27;98805.69;;;-4.51;54.61
35878;BME280;21982;49.804;24.072;2023-02-10T02:53:46;98817.03;;;-4.79;54.79
35878;BME280;21982;49.804;24.072;2023-02-10T03:01:49;98699.88;;;-5.48;54.79
35878;BME280;21982;49.804;24.072;2023-02-10T03:04:17;98816.59;;;-4.66;54.83
35878;BME280;21982;49.804;24.072;2023-02-10T03:06:43;98826.81;;;-4.63;55.08
35878;BME280;21982;49.804;24.072;2023-02-10T03:09:08;98619.31;;;-5.79;55.15
35878;BME280;21982;49.804;24.072;2023-02-10T03:11:36;98617.44;;;-5.97;54.86
35878;BME280;21982;49.804;24.072;2023-02-10T03:14:01;98648.75;;;-5.60;54.81
35878;BME280;21982;49.804;24.072;2023-02-10T03:16:26;98686.66;;;-5.38;55.16
35878;BME280;21982;49.804;24.072;2023-02-10T03:18:52;98421.25;;;-7.10;54.83
35878;BME280;21982;49.804;24.072;2023-02-10T03:21:17;98263.84;;;-7.97;54.60
35878;BME280;21982;49.804;24.072;2023-02-10T03:23:43;98803.84;;;-4.71;54.90
35878;BME280;21982;49.804;24.072;2023-02-10T03:26:08;98383.47;;;-7.34;54.89
35878;BME280;21982;49.804;24.072;2023-02-10T03:28:33;98633.50;;;-5.89;54.86
35878;BME280;21982;49.804;24.072;2023-02-10T03:31:04;98593.59;;;-6.04;54.69
35878;BME280;21982;49.804;24.072;2023-02-10T03:33:30;98750.81;;;-5.04;55.01
35878;BME280;21982;49.804;24.072;2023-02-10T03:35:55;98802.44;;;-5.03;54.78
35878;BME280;21982;49.804;24.072;2023-02-10T03:38:22;98552.81;;;-6.41;54.62
35878;BME280;21982;49.804;24.072;2023-02-10T03:40:49;98651.69;;;-5.70;54.87
35878;BME280;21982;49.804;24.072;2023-02-10T03:43:15;98691.19;;;-5.45;54.49
35878;BME280;21982;49.804;24.072;2023-02-10T03:45:41;98809.41;;;-4.58;54.49
35878;BME280;21982;49.804;24.072;2023-02-10T03:48:06;98710.25;;;-5.24;54.33
35878;BME280;21982;49.804;24.072;2023-02-10T03:50:32;98648.38;;;-5.51;54.66
35878;BME280;21982;49.804;24.072;2023-02-10T03:52:57;98342.50;;;-7.65;54.11
35878;BME280;21982;49.804;24.072;2023-02-10T03:55:22;98684.69;;;-5.09;54.07
35878;BME280;21982;49.804;24.072;2023-02-10T03:57:48;98808.34;;;-4.31;54.01
35878;BME280;21982;49.804;24.072;2023-02-10T04:00:14;98583.97;;;-5.54;54.02
35878;BME280;21982;49.804;24.072;2023-02-10T04:02:40;98839.94;;;-4.23;53.66
35878;BME280;21982;49.804;24.072;2023-02-10T04:05:06;98748.38;;;-4.62;53.85
35878;BME280;21982;49.804;24.072;2023-02-10T04:07:31;98217.19;;;-7.85;53.20
35878;BME280;21982;49.804;24.072;2023-02-10T04:09:57;98775.75;;;-4.35;53.35
35878;BME280;21982;49.804;24.072;2023-02-10T04:12:22;98557.63;;;-5.85;53.78
35878;BME280;21982;49.804;24.072;2023-02-10T04:14:47;98670.47;;;-4.97;53.60
35878;BME280;21982;49.804;24.072;2023-02-10T04:17:13;98213.53;;;-8.02;53.50
35878;BME280;21982;49.804;24.072;2023-02-10T04:19:38;98630.56;;;-5.33;53.31
35878;BME280;21982;49.804;24.072;2023-02-10T04:22:11;98658.91;;;-5.10;53.35
35878;BME280;21982;49.804;24.072;2023-02-10T04:24:36;98665.13;;;-5.61;53.63
35878;BME280;21982;49.804;24.072;2023-02-10T04:27:02;98750.88;;;-5.06;53.56
35878;BME280;21982;49.804;24.072;2023-02-10T04:29:27;98808.16;;;-4.26;53.87
35878;BME280;21982;49.804;24.072;2023-02-10T04:31:53;98727.94;;;-4.68;53.30
35878;BME280;21982;49.804;24.072;2023-02-10T04:34:18;98632.69;;;-5.21;53.55
35878;BME280;21982;49.804;24.072;2023-02-10T04:36:46;98816.94;;;-4.09;52.74
35878;BME280;21982;49.804;24.072;2023-02-10T04:39:12;98690.19;;;-4.73;52.74
35878;BME280;21982;49.804;24.072;2023-02-10T04:41:37;98444.94;;;-6.75;53.10
35878;BME280;21982;49.804;24.072;2023-02-10T04:44:03;98630.72;;;-5.16;52.91
35878;BME280;21982;49.804;24.072;2023-02-10T04:46:28;98673.50;;;-4.86;52.84
35878;BME280;21982;49.804;24.072;2023-02-10T04:48:54;98555.63;;;-5.77;52.79
35878;BME280;21982;49.804;24.072;2023-02-10T04:51:20;98695.06;;;-5.10;52.84
35878;BME280;21982;49.804;24.072;2023-02-10T04:53:45;98852.06;;;-4.03;52.35
35878;BME280;21982;49.804;24.072;2023-02-10T04:56:12;98422.28;;;-6.42;52.20
35878;BME280;21982;49.804;24.072;2023-02-10T05:01:13;98580.44;;;-5.51;52.28
35878;BME280;21982;49.804;24.072;2023-02-10T05:03:39;98737.81;;;-4.56;52.30
35878;BME280;21982;49.804;24.072;2023-02-10T05:06:11;98492.16;;;-6.03;52.24
35878;BME280;21982;49.804;24.072;2023-02-10T05:08:38;98700.94;;;-4.83;52.54
35878;BME280;21982;49.804;24.072;2023-02-10T05:11:16;98108.78;;;-8.44;52.09
35878;BME280;21982;49.804;24.072;2023-02-10T05:13:41;98527.13;;;-5.96;52.44
35878;BME280;21982;49.804;24.072;2023-02-10T05:16:07;98238.72;;;-8.14;52.46
35878;BME280;21982;49.804;24.072;2023-02-10T05:18:34;98601.28;;;-5.56;52.16
35878;BME280;21982;49.804;24.072;2023-02-10T05:21:00;98688.06;;;-5.07;52.67
35878;BME280;21982;49.804;24.072;2023-02-10T05:23:26;98644.47;;;-5.61;52.20
35878;BME280;21982;49.804;24.072;2023-02-10T05:25:52;98288.44;;;-7.38;52.29
35878;BME280;21982;49.804;24.072;2023-02-10T05:28:18;98561.94;;;-5.86;52.28
35878;BME280;21982;49.804;24.072;2023-02-10T05:30:44;98474.78;;;-6.69;51.89
35878;BME280;21982;49.804;24.072;2023-02-10T05:33:10;98712.09;;;-4.83;52.25
35878;BME280;21982;49.804;24.072;2023-02-10T05:35:36;98745.56;;;-4.56;52.28
35878;BME280;21982;49.804;24.072;2023-02-10T05:38:01;98350.19;;;-6.90;51.98
35878;BME280;21982;49.804;24.072;2023-02-10T05:40:27;98637.84;;;-5.21;52.09
35878;BME280;21982;49.804;24.072;2023-02-10T05:50:39;98728.88;;;-4.93;52.02
35878;BME280;21982;49.804;24.072;2023-02-10T05:53:06;98488.75;;;-6.52;52.20
35878;BME280;21982;49.804;24.072;2023-02-10T05:55:33;98688.91;;;-5.29;52.22
35878;BME280;21982;49.804;24.072;2023-02-10T05:57:59;98548.34;;;-6.36;52.28
35878;BME280;21982;49.804;24.072;2023-02-10T06:00:24;98428.91;;;-7.08;52.34
35878;BME280;21982;49.804;24.072;2023-02-10T06:02:50;98475.94;;;-7.03;52.20
35878;BME280;21982;49.804;24.072;2023-02-10T06:05:15;98801.09;;;-4.90;52.48
35878;BME280;21982;49.804;24.072;2023-02-10T06:07:41;98802.84;;;-4.90;52.55
35878;BME280;21982;49.804;24.072;2023-02-10T06:10:06;98545.75;;;-6.36;52.42
35878;BME280;21982;49.804;24.072;2023-02-10T06:12:32;98546.06;;;-6.45;52.43
35878;BME280;21982;49.804;24.072;2023-02-10T06:14:57;98337.72;;;-7.51;52.40
35878;BME280;21982;49.804;24.072;2023-02-10T06:17:23;98442.81;;;-6.89;52.34
35878;BME280;21982;49.804;24.072;2023-02-10T06:19:49;98495.09;;;-6.60;52.19
35878;BME280;21982;49.804;24.072;2023-02-10T06:22:15;98356.78;;;-7.56;52.26
35878;BME280;21982;49.804;24.072;2023-02-10T06:24:40;98469.41;;;-6.88;51.94
35878;BME280;21982;49.804;24.072;2023-02-10T06:27:06;98512.16;;;-6.33;51.68
35878;BME280;21982;49.804;24.072;2023-02-10T06:29:32;98339.13;;;-7.17;51.77
35878;BME280;21982;49.804;24.072;2023-02-10T06:32:03;98466.53;;;-6.31;51.74
35878;BME280;21982;49.804;24.072;2023-02-10T06:34:37;98261.09;;;-7.41;51.80
35878;BME280;21982;49.804;24.072;2023-02-10T06:37:10;98029.53;;;-8.80;51.64
35878;BME280;21982;49.804;24.072;2023-02-10T06:39:38;98115.28;;;-8.34;51.19
35878;BME280;21982;49.804;24.072;2023-02-10T06:42:06;98723.59;;;-4.46;51.52
35878;BME280;21982;49.804;24.072;2023-02-10T06:44:32;98130.34;;;-8.00;51.33
35878;BME280;21982;49.804;24.072;2023-02-10T06:46:57;98359.19;;;-6.55;51.49
35878;BME280;21982;49.804;24.072;2023-02-10T06:49:22;98716.16;;;-4.32;51.62
35878;BME280;21982;49.804;24.072;2023-02-10T06:51:48;98689.59;;;-4.57;51.36
35878;BME280;21982;49.804;24.072;2023-02-10T06:54:13;98802.38;;;-3.89;51.51
35878;BME280;21982;49.804;24.072;2023-02-10T06:56:38;98772.75;;;-3.82;50.89
35878;BME280;21982;49.804;24.072;2023-02-10T06:59:05;98423.50;;;-5.85;50.95
35878;BME280;21982;49.804;24.072;2023-02-10T07:01:31;98667.19;;;-4.36;50.59
35878;BME280;21982;49.804;24.072;2023-02-10T07:03:56;98785.06;;;-3.67;51.08
35878;BME280;21982;49.804;24.072;2023-02-10T07:06:21;98526.59;;;-5.17;51.06
35878;BME280;21982;49.804;24.072;2023-02-10T07:08:47;98195.81;;;-7.38;50.67
35878;BME280;21982;49.804;24.072;2023-02-10T07:11:14;98427.50;;;-5.98;50.93
35878;BME280;21982;49.804;24.072;2023-02-10T07:13:40;98553.16;;;-5.13;50.41
35878;BME280;21982;49.804;24.072;2023-02-10T07:16:06;98469.00;;;-5.61;50.67
35878;BME280;21982;49.804;24.072;2023-02-10T07:18:31;98668.28;;;-4.20;50.47
35878;BME280;21982;49.804;24.072;2023-02-10T07:20:56;98614.13;;;-4.45;50.45
35878;BME280;21982;49.804;24.072;2023-02-10T07:23:22;98638.91;;;-3.99;50.48
35878;BME280;21982;49.804;24.072;2023-02-10T07:25:47;98506.97;;;-4.99;50.55
35878;BME280;21982;49.804;24.072;2023-02-10T07:28:16;98803.34;;;-2.90;50.51
35878;BME280;21982;49.804;24.072;2023-02-10T07:30:43;98156.38;;;-6.72;49.81
35878;BME280;21982;49.804;24.072;2023-02-10T07:33:09;98203.66;;;-6.31;50.00
35878;BME280;21982;49.804;24.072;2023-02-10T07:35:35;98682.22;;;-3.24;49.71
35878;BME280;21982;49.804;24.072;2023-02-10T07:38:00;98728.69;;;-2.82;49.66
35878;BME280;21982;49.804;24.072;2023-02-10T07:40:26;98657.28;;;-3.08;49.62
35878;BME280;21982;49.804;24.072;2023-02-10T07:42:54;98238.19;;;-5.54;49.46
35878;BME280;21982;49.804;24.072;2023-02-10T07:45:19;98519.75;;;-3.77;49.44
35878;BME280;21982;49.804;24.072;2023-02-10T07:47:44;98472.41;;;-3.98;49.43
35878;BME280;21982;49.804;24.072;2023-02-10T07:50:10;98703.69;;;-2.66;49.31
35878;BME280;21982;49.804;24.072;2023-02-10T07:52:35;98466.75;;;-4.25;49.03
35878;BME280;21982;49.804;24.072;2023-02-10T07:55:01;98229.00;;;-5.59;49.39
35878;BME280;21982;49.804;24.072;2023-02-10T07:57:28;98781.59;;;-2.31;49.61
35878;BME280;21982;49.804;24.072;2023-02-10T07:59:53;98742.75;;;-2.69;49.55
35878;BME280;21982;49.804;24.072;2023-02-10T08:02:19;98674.09;;;-2.98;49.08
35878;BME280;21982;49.804;24.072;2023-02-10T08:04:44;98665.63;;;-3.01;49.75
35878;BME280;21982;49.804;24.072;2023-02-10T08:07:09;98629.91;;;-3.32;49.39
35878;BME280;21982;49.804;24.072;2023-02-10T08:09:36;98754.31;;;-2.57;49.74
35878;BME280;21982;49.804;24.072;2023-02-10T08:12:03;98748.34;;;-2.59;49.74
35878;BME280;21982;49.804;24.072;2023-02-10T08:14:28;98683.69;;;-3.00;49.43
35878;BME280;21982;49.804;24.072;2023-02-10T08:16:53;98796.63;;;-2.38;49.45
35878;BME280;21982;49.804;24.072;2023-02-10T08:19:19;98740.66;;;-2.80;49.89
35878;BME280;21982;49.804;24.072;2023-02-10T08:21:45;98730.06;;;-2.94;49.81
35878;BME280;21982;49.804;24.072;2023-02-10T08:24:10;98797.66;;;-2.42;49.63
35878;BME280;21982;49.804;24.072;2023-02-10T08:26:36;98807.56;;;-2.31;49.65
35878;BME280;21982;49.804;24.072;2023-02-10T08:29:02;98728.50;;;-2.60;49.51
35878;BME280;21982;49.804;24.072;2023-02-10T08:31:27;98741.97;;;-2.52;49.82
35878;BME280;21982;49.804;24.072;2023-02-10T08:33:53;98569.03;;;-3.60;49.76
35878;BME280;21982;49.804;24.072;2023-02-10T08:36:20;98798.28;;;-2.18;49.91
35878;BME280;21982;49.804;24.072;2023-02-10T08:38:47;98784.06;;;-2.10;49.44
35878;BME280;21982;49.804;24.072;2023-02-10T08:41:14;98481.44;;;-3.88;49.37
35878;BME280;21982;49.804;24.072;2023-02-10T08:43:40;98761.34;;;-2.06;49.67
35878;BME280;21982;49.804;24.072;2023-02-10T08:46:06;98682.81;;;-2.44;49.74
35878;BME280;21982;49.804;24.072;2023-02-10T08:48:32;98580.53;;;-2.92;49.63
35878;BME280;21982;49.804;24.072;2023-02-10T08:50:58;98796.41;;;-1.44;49.51
35878;BME280;21982;49.804;24.072;2023-02-10T08:53:25;98801.25;;;-1.38;49.24
35878;BME280;21982;49.804;24.072;2023-02-10T08:55:58;98699.91;;;-2.06;48.99
35878;BME280;21982;49.804;24.072;2023-02-10T08:58:28;98582.97;;;-2.89;49.38
35878;BME280;21982;49.804;24.072;2023-02-10T09:00:56;98799.19;;;-1.14;49.16
35878;BME280;21982;49.804;24.072;2023-02-10T09:03:22;98486.81;;;-3.01;49.06
35878;BME280;21982;49.804;24.072;2023-02-10T09:05:48;98716.16;;;-1.67;49.08
35878;BME280;21982;49.804;24.072;2023-02-10T09:08:14;98809.84;;;-0.86;48.87
35878;BME280;21982;49.804;24.072;2023-02-10T09:10:44;98686.59;;;-1.48;49.02
35878;BME280;21982;49.804;24.072;2023-02-10T09:13:10;98795.78;;;-0.66;49.01
35878;BME280;21982;49.804;24.072;2023-02-10T09:15:37;98797.47;;;-0.49;48.62
35878;BME280;21982;49.804;24.072;2023-02-10T09:18:06;98804.22;;;-0.45;48.90
35878;BME280;21982;49.804;24.072;2023-02-10T09:20:32;98837.28;;;-0.47;48.48
35878;BME280;21982;49.804;24.072;2023-02-10T09:22:57;98784.22;;;-0.60;48.62
35878;BME280;21982;49.804;24.072;2023-02-10T09:25:22;98724.28;;;-0.90;48.80
35878;BME280;21982;49.804;24.072;2023-02-10T09:27:48;98587.47;;;-1.73;48.44
35878;BME280;21982;49.804;24.072;2023-02-10T09:30:13;98803.38;;;-0.14;48.27
35878;BME280;21982;49.804;24.072;2023-02-10T09:32:39;98746.25;;;-0.33;48.57
35878;BME280;21982;49.804;24.072;2023-02-10T09:35:04;98551.72;;;-1.68;47.91
35878;BME280;21982;49.804;24.072;2023-02-10T09:37:30;98799.56;;;0.07;48.25
35878;BME280;21982;49.804;24.072;2023-02-10T09:39:55;98756.44;;;-0.13;48.48
35878;BME280;21982;49.804;24.072;2023-02-10T09:45:01;98799.97;;;0.31;48.07
35878;BME280;21982;49.804;24.072;2023-02-10T09:55:34;98789.75;;;0.86;47.59
35878;BME280;21982;49.804;24.072;2023-02-10T09:58:10;98543.59;;;-0.53;47.28
35878;BME280;21982;49.804;24.072;2023-02-10T10:00:40;98264.81;;;-2.52;47.12
35878;BME280;21982;49.804;24.072;2023-02-10T10:03:13;98703.59;;;0.59;47.04
35878;BME280;21982;49.804;24.072;2023-02-10T10:13:52;98525.44;;;-0.25;46.66
35878;BME280;21982;49.804;24.072;2023-02-10T10:16:30;98612.56;;;0.56;46.59
35878;BME280;21982;49.804;24.072;2023-02-10T10:19:05;98762.81;;;1.57;46.29
35878;BME280;21982;49.804;24.072;2023-02-10T10:21:37;98768.66;;;1.60;46.49
35878;BME280;21982;49.804;24.072;2023-02-10T10:24:18;98737.47;;;1.45;45.99
35878;BME280;21982;49.804;24.072;2023-02-10T10:29:52;98776.91;;;1.81;46.03
35878;BME280;21982;49.804;24.072;2023-02-10T10:34:57;98644.50;;;1.15;46.30
35878;BME280;21982;49.804;24.072;2023-02-10T10:37:24;98774.00;;;2.13;46.11
35878;BME280;21982;49.804;24.072;2023-02-10T10:39:57;98385.25;;;-0.31;45.37
35878;BME280;21982;49.804;24.072;2023-02-10T10:42:41;98728.94;;;2.09;45.68
35878;BME280;21982;49.804;24.072;2023-02-10T10:45:16;98619.78;;;1.75;45.66
35878;BME280;21982;49.804;24.072;2023-02-10T10:47:47;98728.28;;;3.70;45.15
35878;BME280;21982;49.804;24.072;2023-02-10T10:50:18;98631.22;;;4.42;43.77
35878;BME280;21982;49.804;24.072;2023-02-10T11:00:53;98751.16;;;8.32;39.80
35878;BME280;21982;49.804;24.072;2023-02-10T11:03:26;98626.72;;;8.17;39.06
35878;BME280;21982;49.804;24.072;2023-02-10T11:06:17;98276.09;;;6.37;38.64
35878;BME280;21982;49.804;24.072;2023-02-10T11:09:00;98480.75;;;7.80;38.56
35878;BME280;21982;49.804;24.072;2023-02-10T11:11:38;98727.97;;;9.21;37.78
35878;BME280;21982;49.804;24.072;2023-02-10T11:14:21;98733.09;;;8.76;38.18
35878;BME280;21982;49.804;24.072;2023-02-10T11:16:53;98721.28;;;8.80;38.14
35878;BME280;21982;49.804;24.072;2023-02-10T11:19:28;98555.25;;;7.72;36.76
35878;BME280;21982;49.804;24.072;2023-02-10T11:21:54;98735.38;;;9.17;37.15
35878;BME280;21982;49.804;24.072;2023-02-10T11:24:28;98641.88;;;8.91;37.04
35878;BME280;21982;49.804;24.072;2023-02-10T11:26:56;98736.63;;;9.13;36.82
35878;BME280;21982;49.804;24.072;2023-02-10T11:29:22;98735.94;;;9.11;37.20
35878;BME280;21982;49.804;24.072;2023-02-10T11:31:51;98538.19;;;7.76;37.06
35878;BME280;21982;49.804;24.072;2023-02-10T11:36:44;98712.19;;;9.01;37.00
35878;BME280;21982;49.804;24.072;2023-02-10T11:39:30;98717.03;;;9.06;37.19
35878;BME280;21982;49.804;24.072;2023-02-10T11:41:56;98305.84;;;6.09;36.97
35878;BME280;21982;49.804;24.072;2023-02-10T11:44:28;98571.78;;;7.55;36.98
35878;BME280;21982;49.804;24.072;2023-02-10T11:47:05;98462.69;;;6.69;36.62
35878;BME280;21982;49.804;24.072;2023-02-10T11:49:43;98564.00;;;7.44;36.39
35878;BME280;21982;49.804;24.072;2023-02-10T11:52:10;98696.72;;;8.50;37.09
35878;BME280;21982;49.804;24.072;2023-02-10T11:54:36;98711.88;;;9.04;36.85
35878;BME280;21982;49.804;24.072;2023-02-10T12:03:16;98668.41;;;8.99;36.05
35878;BME280;21982;49.804;24.072;2023-02-10T12:06:17;98704.59;;;9.26;35.79
35878;BME280;21982;49.804;24.072;2023-02-10T12:17:36;98704.44;;;10.27;34.74
35878;BME280;21982;49.804;24.072;2023-02-10T12:26:00;98634.06;;;8.99;34.70
35878;BME280;21982;49.804;24.072;2023-02-10T12:37:01;98570.69;;;7.57;35.32
35878;BME280;21982;49.804;24.072;2023-02-10T12:42:36;98681.38;;;7.67;35.87
35878;BME280;21982;49.804;24.072;2023-02-10T12:45:16;98693.22;;;7.32;36.02
35878;BME280;21982;49.804;24.072;2023-02-10T12:50:47;98698.44;;;6.62;36.95
35878;BME280;21982;49.804;24.072;2023-02-10T12:53:24;98597.00;;;6.07;37.10
35878;BME280;21982;49.804;24.072;2023-02-10T12:58:46;98656.34;;;6.92;36.74
35878;BME280;21982;49.804;24.072;2023-02-10T13:01:22;98451.50;;;5.76;36.20
35878;BME280;21982;49.804;24.072;2023-02-10T13:03:51;98030.59;;;3.40;36.52
35878;BME280;21982;49.804;24.072;2023-02-10T13:06:31;98701.28;;;8.10;35.84
35878;BME280;21982;49.804;24.072;2023-02-10T13:09:10;98689.78;;;8.30;35.20
35878;BME280;21982;49.804;24.072;2023-02-10T13:14:24;98698.31;;;7.55;35.46
35878;BME280;21982;49.804;24.072;2023-02-10T13:16:54;98703.06;;;7.21;36.23
35878;BME280;21982;49.804;24.072;2023-02-10T13:27:50;98692.97;;;5.58;37.43
35878;BME280;21982;49.804;24.072;2023-02-10T13:33:27;98225.59;;;2.21;37.91
35878;BME280;21982;49.804;24.072;2023-02-10T13:35:56;98702.94;;;5.32;38.00
35878;BME280;21982;49.804;24.072;2023-02-10T13:38:23;98715.41;;;5.62;38.04
35878;BME280;21982;49.804;24.072;2023-02-10T13:40:53;98589.88;;;5.22;38.07
35878;BME280;21982;49.804;24.072;2023-02-10T13:43:40;98644.16;;;5.87;37.82
35878;BME280;21982;49.804;24.072;2023-02-10T13:46:36;98709.66;;;6.85;37.34
35878;BME280;21982;49.804;24.072;2023-02-10T13:49:01;98613.47;;;6.29;37.37
35878;BME280;21982;49.804;24.072;2023-02-10T13:51:30;98496.06;;;5.77;37.55
35878;BME280;21982;49.804;24.072;2023-02-10T13:53:57;98716.69;;;7.05;36.77
35878;BME280;21982;49.804;24.072;2023-02-10T13:56:28;98294.38;;;4.56;36.53
35878;BME280;21982;49.804;24.072;2023-02-10T13:59:02;98706.56;;;6.59;37.14
35878;BME280;21982;49.804;24.072;2023-02-10T14:03:56;98573.94;;;4.92;37.96
35878;BME280;21982;49.804;24.072;2023-02-10T14:06:40;98460.28;;;3.92;37.88
35878;BME280;21982;49.804;24.072;2023-02-10T14:09:18;98715.56;;;4.93;38.27
35878;BME280;21982;49.804;24.072;2023-02-10T14:11:45;98458.47;;;3.24;38.62
35878;BME280;21982;49.804;24.072;2023-02-10T14:19:47;98582.00;;;3.29;39.88
35878;BME280;21982;49.804;24.072;2023-02-10T14:22:23;98704.25;;;4.00;39.65
35878;BME280;21982;49.804;24.072;2023-02-10T14:24:49;98717.28;;;3.89;40.61
35878;BME280;21982;49.804;24.072;2023-02-10T14:27:16;98659.66;;;3.42;40.18
35878;BME280;21982;49.804;24.072;2023-02-10T14:29:48;98678.66;;;3.56;40.09
35878;BME280;21982;49.804;24.072;2023-02-10T14:32:16;98591.41;;;2.59;40.34
35878;BME280;21982;49.804;24.072;2023-02-10T14:34:59;98791.31;;;3.31;40.58
35878;BME280;21982;49.804;24.072;2023-02-10T14:37:28;98732.38;;;3.25;41.41
35878;BME280;21982;49.804;24.072;2023-02-10T14:42:22;98725.88;;;3.18;41.27
35878;BME280;21982;49.804;24.072;2023-02-10T14:44:56;98575.94;;;2.18;41.10
35878;BME280;21982;49.804;24.072;2023-02-10T14:47:35;98724.16;;;2.93;41.63
35878;BME280;21982;49.804;24.072;2023-02-10T14:50:02;98633.25;;;2.21;41.67
35878;BME280;21982;49.804;24.072;2023-02-10T14:52:32;98381.16;;;0.35;41.91
35878;BME280;21982;49.804;24.072;2023-02-10T14:55:00;98391.75;;;0.58;41.90
35878;BME280;21982;49.804;24.072;2023-02-10T14:57:28;98734.28;;;2.60;42.68
35878;BME280;21982;49.804;24.072;2023-02-10T14:59:58;98767.03;;;2.65;42.74
35878;BME280;21982;49.804;24.072;2023-02-10T15:02:29;98754.06;;;2.64;42.85
35878;BME280;21982;49.804;24.072;2023-02-10T15:04:57;98632.88;;;1.87;42.79
35878;BME280;21982;49.804;24.072;2023-02-10T15:07:31;98668.00;;;2.09;42.63
35878;BME280;21982;49.804;24.072;2023-02-10T15:10:34;98748.72;;;2.65;42.76
35878;BME280;21982;49.804;24.072;2023-02-10T15:12:52;98744.94;;;2.57;43.21
35878;BME280;21982;49.804;24.072;2023-02-10T15:15:40;98750.59;;;2.63;43.61
35878;BME280;21982;49.804;24.072;2023-02-10T15:20:35;98774.84;;;2.53;43.24